Time,TemperatureF,DewpointF,PressureIn,WindDirection,WindDirectionDegrees,WindSpeedMPH,WindSpeedGustMPH,Humidity,HourlyPrecipIn,Conditions,Clouds,dailyrainin,SoftwareType,DateUTC
2013-09-15 00:04:00,62.3,56.0,30.09,NE,40,0.0,0.0,79,0.00,,,0.00,weatherlink.com 1.10,2013-09-15 04:04:00,
2013-09-15 00:19:00,62.4,55.0,30.09,NE,40,0.0,0.0,78,0.00,,,0.00,weatherlink.com 1.10,2013-09-15 04:19:00,
2013-09-15 00:34:00,62.4,56.0,30.09,NE,40,0.0,0.0,79,0.00,,,0.00,weatherlink.com 1.10,2013-09-15 04:34:00,
2013-09-15 00:49:00,62.1,56.0,30.10,NE,40,0.0,0.0,80,0.00,,,0.00,weatherlink.com 1.10,2013-09-15 04:49:00,
2013-09-15 01:04:00,61.8,56.0,30.10,NE,40,0.0,0.0,80,0.00,,,0.00,weatherlink.com 1.10,2013-09-15 05:04:00,
2013-09-15 01:19:00,61.8,56.0,30.10,NE,40,0.0,0.0,80,0.00,,,0.00,weatherlink.com 1.10,2013-09-15 05:19:00,
2013-09-15 01:34:00,61.5,55.0,30.11,NE,40,0.0,0.0,80,0.00,,,0.00,weatherlink.com 1.10,2013-09-15 05:34:00,
2013-09-15 01:49:00,61.2,56.0,30.11,NE,40,0.0,0.0,82,0.00,,,0.00,weatherlink.com 1.10,2013-09-15 05:49:00,
2013-09-15 02:04:00,60.5,55.0,30.11,NE,40,0.0,0.0,83,0.00,,,0.00,weatherlink.com 1.10,2013-09-15 06:04:00,
2013-09-15 02:19:00,60.1,55.0,30.11,NE,40,0.0,0.0,84,0.00,,,0.00,weatherlink.com 1.10,2013-09-15 06:19:00,
2013-09-15 02:34:00,59.5,55.0,30.11,NE,40,0.0,0.0,86,0.00,,,0.00,weatherlink.com 1.10,2013-09-15 06:34:00,
2013-09-15 02:49:00,59.2,55.0,30.11,NE,40,0.0,0.0,86,0.00,,,0.00,weatherlink.com 1.10,2013-09-15 06:49:00,
2013-09-15 03:04:00,59.2,55.0,30.11,NE,40,0.0,0.0,87,0.00,,,0.00,weatherlink.com 1.10,2013-09-15 07:04:00,
2013-09-15 03:19:00,59.3,56.0,30.11,NE,40,0.0,0.0,87,0.00,,,0.00,weatherlink.com 1.10,2013-09-15 07:19:00,
2013-09-15 03:34:00,59.5,55.0,30.11,NE,40,0.0,0.0,86,0.00,,,0.00,weatherlink.com 1.10,2013-09-15 07:34:00,
2013-09-15 03:49:00,59.3,55.0,30.11,NE,40,0.0,0.0,86,0.00,,,0.00,weatherlink.com 1.10,2013-09-15 07:49:00,
2013-09-15 04:04:00,59.2,55.0,30.12,NE,40,0.0,0.0,86,0.00,,,0.00,weatherlink.com 1.10,2013-09-15 08:04:00,
2013-09-15 04:19:00,59.0,55.0,30.12,NE,40,0.0,0.0,86,0.00,,,0.00,weatherlink.com 1.10,2013-09-15 08:19:00,
2013-09-15 04:34:00,58.9,55.0,30.12,NE,40,0.0,0.0,86,0.00,,,0.00,weatherlink.com 1.10,2013-09-15 08:34:00,
2013-09-15 04:49:00,58.7,55.0,30.12,NE,40,0.0,0.0,87,0.00,,,0.00,weatherlink.com 1.10,2013-09-15 08:49:00,
2013-09-15 05:04:00,58.6,55.0,30.13,NE,40,0.0,0.0,87,0.00,,,0.00,weatherlink.com 1.10,2013-09-15 09:04:00,
2013-09-15 05:19:00,58.6,55.0,30.13,NE,40,0.0,0.0,87,0.00,,,0.00,weatherlink.com 1.10,2013-09-15 09:19:00,
2013-09-15 05:34:00,58.3,54.0,30.13,NE,40,0.0,0.0,86,0.00,,,0.00,weatherlink.com 1.10,2013-09-15 09:34:00,
2013-09-15 05:49:00,58.1,54.0,30.13,NE,40,0.0,0.0,86,0.00,,,0.00,weatherlink.com 1.10,2013-09-15 09:49:00,
2013-09-15 06:04:00,57.8,54.0,30.14,NE,40,0.0,0.0,86,0.00,,,0.00,weatherlink.com 1.10,2013-09-15 10:04:00,
2013-09-15 06:19:00,57.6,54.0,30.14,NE,40,0.0,0.0,87,0.00,,,0.00,weatherlink.com 1.10,2013-09-15 10:19:00,
2013-09-15 06:34:00,57.6,54.0,30.14,NE,40,0.0,0.0,88,0.00,,,0.00,weatherlink.com 1.10,2013-09-15 10:34:00,
2013-09-15 06:49:00,57.8,54.0,30.15,NE,40,0.0,0.0,88,0.00,,,0.00,weatherlink.com 1.10,2013-09-15 10:49:00,
2013-09-15 07:04:00,58.0,54.0,30.15,NE,40,0.0,0.0,87,0.00,,,0.00,weatherlink.com 1.10,2013-09-15 11:04:00,
2013-09-15 07:19:00,58.3,54.0,30.15,NE,40,0.0,0.0,86,0.00,,,0.00,weatherlink.com 1.10,2013-09-15 11:19:00,
2013-09-15 07:34:00,58.6,55.0,30.16,NE,40,0.0,0.0,86,0.00,,,0.00,weatherlink.com 1.10,2013-09-15 11:34:00,
2013-09-15 07:49:00,59.0,54.0,30.16,NE,40,0.0,0.0,84,0.00,,,0.00,weatherlink.com 1.10,2013-09-15 11:49:00,
2013-09-15 08:04:00,59.5,54.0,30.16,NE,40,0.0,0.0,83,0.00,,,0.00,weatherlink.com 1.10,2013-09-15 12:04:00,
2013-09-15 08:19:00,60.2,55.0,30.17,NE,42,0.0,0.0,83,0.00,,,0.00,weatherlink.com 1.10,2013-09-15 12:19:00,
2013-09-15 08:34:00,61.0,55.0,30.17,NE,46,0.0,1.0,81,0.00,,,0.00,weatherlink.com 1.10,2013-09-15 12:34:00,
2013-09-15 08:49:00,61.6,55.0,30.17,NE,46,0.0,0.0,80,0.00,,,0.00,weatherlink.com 1.10,2013-09-15 12:49:00,
2013-09-15 09:05:00,62.1,56.0,30.17,NE,46,0.0,0.0,80,0.00,,,0.00,weatherlink.com 1.10,2013-09-15 13:05:00,
2013-09-15 09:20:00,62.3,56.0,30.18,NE,46,0.0,0.0,81,0.00,,,0.00,weatherlink.com 1.10,2013-09-15 13:20:00,
2013-09-15 09:35:00,62.7,56.0,30.18,NE,46,0.0,0.0,80,0.00,,,0.00,weatherlink.com 1.10,2013-09-15 13:35:00,
2013-09-15 09:50:00,63.9,57.0,30.18,ESE,111,0.0,1.0,79,0.00,,,0.00,weatherlink.com 1.10,2013-09-15 13:50:00,
2013-09-15 10:05:00,65.2,59.0,30.18,East,92,0.0,2.0,79,0.00,,,0.00,weatherlink.com 1.10,2013-09-15 14:05:00,
2013-09-15 10:20:00,66.3,59.0,30.19,NE,34,0.0,0.0,78,0.00,,,0.00,weatherlink.com 1.10,2013-09-15 14:20:00,
2013-09-15 10:35:00,67.4,60.0,30.19,West,261,0.0,2.0,76,0.00,,,0.00,weatherlink.com 1.10,2013-09-15 14:35:00,
2013-09-15 10:50:00,69.1,61.0,30.19,West,275,0.0,1.0,75,0.00,,,0.00,weatherlink.com 1.10,2013-09-15 14:50:00,
2013-09-15 11:05:00,70.9,61.0,30.19,SSW,196,0.0,3.0,72,0.00,,,0.00,weatherlink.com 1.10,2013-09-15 15:05:00,
2013-09-15 11:20:00,72.3,62.0,30.19,SSE,153,0.0,2.0,69,0.00,,,0.00,weatherlink.com 1.10,2013-09-15 15:20:00,
2013-09-15 11:35:00,72.3,62.0,30.19,ENE,73,1.0,3.0,69,0.00,,,0.00,weatherlink.com 1.10,2013-09-15 15:35:00,
2013-09-15 11:50:00,72.8,62.0,30.19,ENE,63,0.0,3.0,69,0.00,,,0.00,weatherlink.com 1.10,2013-09-15 15:50:00,
2013-09-15 12:05:00,73.9,63.0,30.18,North,351,1.0,2.0,68,0.00,,,0.00,weatherlink.com 1.10,2013-09-15 16:05:00,
2013-09-15 12:20:00,74.0,62.0,30.18,SE,124,0.0,2.0,67,0.00,,,0.00,weatherlink.com 1.10,2013-09-15 16:20:00,
2013-09-15 12:35:00,74.4,63.0,30.17,East,79,0.0,2.0,67,0.00,,,0.00,weatherlink.com 1.10,2013-09-15 16:35:00,
2013-09-15 12:50:00,76.3,64.0,30.17,WSW,238,0.0,3.0,65,0.00,,,0.00,weatherlink.com 1.10,2013-09-15 16:50:00,
2013-09-15 13:05:00,78.1,64.0,30.16,SSE,157,0.0,1.0,63,0.00,,,0.00,weatherlink.com 1.10,2013-09-15 17:05:00,
2013-09-15 13:20:00,77.6,64.0,30.16,NE,40,0.0,3.0,63,0.00,,,0.00,weatherlink.com 1.10,2013-09-15 17:20:00,
2013-09-15 13:35:00,77.4,64.0,30.16,NE,42,0.0,5.0,63,0.00,,,0.00,weatherlink.com 1.10,2013-09-15 17:35:00,
2013-09-15 13:50:00,77.7,63.0,30.15,SSE,166,0.0,3.0,60,0.00,,,0.00,weatherlink.com 1.10,2013-09-15 17:50:00,
2013-09-15 14:05:00,78.1,63.0,30.14,SSE,163,0.0,1.0,61,0.00,,,0.00,weatherlink.com 1.10,2013-09-15 18:05:00,
2013-09-15 14:20:00,78.6,63.0,30.14,WSW,252,0.0,2.0,59,0.00,,,0.00,weatherlink.com 1.10,2013-09-15 18:20:00,
2013-09-15 14:35:00,79.4,63.0,30.14,South,169,0.0,1.0,58,0.00,,,0.00,weatherlink.com 1.10,2013-09-15 18:35:00,
2013-09-15 14:50:00,78.8,63.0,30.13,East,94,0.0,1.0,59,0.00,,,0.00,weatherlink.com 1.10,2013-09-15 18:50:00,
2013-09-15 15:05:00,78.3,65.0,30.12,East,94,0.0,0.0,64,0.00,,,0.00,weatherlink.com 1.10,2013-09-15 19:05:00,
2013-09-15 15:20:00,77.4,65.0,30.12,East,94,0.0,0.0,66,0.00,,,0.00,weatherlink.com 1.10,2013-09-15 19:20:00,
2013-09-15 15:35:00,78.1,63.0,30.11,WNW,286,1.0,2.0,60,0.00,,,0.00,weatherlink.com 1.10,2013-09-15 19:35:00,
2013-09-15 15:50:00,78.8,65.0,30.11,NNW,338,0.0,0.0,62,0.00,,,0.00,weatherlink.com 1.10,2013-09-15 19:50:00,
2013-09-15 16:05:00,79.4,62.0,30.10,South,184,1.0,3.0,56,0.00,,,0.00,weatherlink.com 1.10,2013-09-15 20:05:00,
2013-09-15 16:20:00,79.4,63.0,30.09,WNW,298,0.0,1.0,58,0.00,,,0.00,weatherlink.com 1.10,2013-09-15 20:20:00,
2013-09-15 16:36:00,79.4,63.0,30.09,WNW,300,0.0,1.0,57,0.00,,,0.00,weatherlink.com 1.10,2013-09-15 20:36:00,
2013-09-15 16:50:00,78.8,65.0,30.09,WNW,300,0.0,0.0,62,0.00,,,0.00,weatherlink.com 1.10,2013-09-15 20:50:00,
2013-09-15 17:05:00,78.5,64.0,30.09,WNW,300,0.0,1.0,61,0.00,,,0.00,weatherlink.com 1.10,2013-09-15 21:05:00,
2013-09-15 17:20:00,78.5,65.0,30.09,WNW,301,0.0,0.0,63,0.00,,,0.00,weatherlink.com 1.10,2013-09-15 21:20:00,
2013-09-15 17:35:00,77.7,64.0,30.08,WSW,238,0.0,2.0,63,0.00,,,0.00,weatherlink.com 1.10,2013-09-15 21:35:00,
2013-09-15 17:51:00,77.7,65.0,30.08,WSW,238,0.0,0.0,64,0.00,,,0.00,weatherlink.com 1.10,2013-09-15 21:51:00,
2013-09-15 18:06:00,77.6,65.0,30.07,WSW,238,0.0,0.0,66,0.00,,,0.00,weatherlink.com 1.10,2013-09-15 22:06:00,
2013-09-15 18:21:00,77.4,66.0,30.08,WSW,238,0.0,0.0,67,0.00,,,0.00,weatherlink.com 1.10,2013-09-15 22:21:00,
2013-09-15 18:36:00,76.8,65.0,30.07,WSW,238,0.0,0.0,68,0.00,,,0.00,weatherlink.com 1.10,2013-09-15 22:36:00,
2013-09-15 18:51:00,76.0,66.0,30.07,WSW,238,0.0,0.0,72,0.00,,,0.00,weatherlink.com 1.10,2013-09-15 22:51:00,
2013-09-15 19:06:00,75.1,67.0,30.08,WSW,238,0.0,0.0,75,0.00,,,0.00,weatherlink.com 1.10,2013-09-15 23:06:00,
2013-09-15 19:21:00,74.0,66.0,30.07,WSW,238,0.0,0.0,77,0.00,,,0.00,weatherlink.com 1.10,2013-09-15 23:21:00,
2013-09-15 19:36:00,73.0,66.0,30.08,WSW,238,0.0,0.0,79,0.00,,,0.00,weatherlink.com 1.10,2013-09-15 23:36:00,
2013-09-15 19:51:00,72.3,66.0,30.08,WSW,238,0.0,0.0,80,0.00,,,0.00,weatherlink.com 1.10,2013-09-15 23:51:00,
2013-09-15 20:06:00,71.6,66.0,30.09,WSW,238,0.0,0.0,82,0.00,,,0.00,weatherlink.com 1.10,2013-09-16 00:06:00,
2013-09-15 20:21:00,71.1,66.0,30.09,WSW,238,0.0,0.0,84,0.00,,,0.00,weatherlink.com 1.10,2013-09-16 00:21:00,
2013-09-15 20:36:00,70.6,66.0,30.09,WSW,238,0.0,0.0,85,0.00,,,0.00,weatherlink.com 1.10,2013-09-16 00:36:00,
2013-09-15 20:51:00,70.3,66.0,30.10,WSW,238,0.0,0.0,86,0.00,,,0.00,weatherlink.com 1.10,2013-09-16 00:51:00,
2013-09-15 21:06:00,70.1,66.0,30.11,WSW,238,0.0,0.0,86,0.00,,,0.00,weatherlink.com 1.10,2013-09-16 01:06:00,
2013-09-15 21:21:00,69.9,66.0,30.11,WSW,238,0.0,0.0,87,0.00,,,0.00,weatherlink.com 1.10,2013-09-16 01:21:00,
2013-09-15 21:36:00,69.6,66.0,30.11,WSW,238,0.0,0.0,87,0.00,,,0.00,weatherlink.com 1.10,2013-09-16 01:36:00,
2013-09-15 21:51:00,69.1,66.0,30.11,WSW,238,0.0,0.0,88,0.00,,,0.00,weatherlink.com 1.10,2013-09-16 01:51:00,
2013-09-15 22:06:00,68.6,65.0,30.11,WSW,238,0.0,0.0,88,0.00,,,0.00,weatherlink.com 1.10,2013-09-16 02:06:00,
2013-09-15 22:21:00,68.3,65.0,30.11,WSW,238,0.0,0.0,89,0.00,,,0.00,weatherlink.com 1.10,2013-09-16 02:21:00,
2013-09-15 22:36:00,68.1,65.0,30.11,WSW,238,0.0,0.0,90,0.00,,,0.00,weatherlink.com 1.10,2013-09-16 02:36:00,
2013-09-15 22:51:00,67.9,65.0,30.11,WSW,238,0.0,0.0,90,0.00,,,0.00,weatherlink.com 1.10,2013-09-16 02:51:00,
2013-09-15 23:06:00,67.8,65.0,30.11,WSW,238,0.0,0.0,90,0.00,,,0.00,weatherlink.com 1.10,2013-09-16 03:06:00,
2013-09-15 23:21:00,67.6,65.0,30.11,WSW,238,0.0,0.0,91,0.00,,,0.00,weatherlink.com 1.10,2013-09-16 03:21:00,
2013-09-15 23:36:00,67.3,65.0,30.11,WSW,238,0.0,0.0,91,0.00,,,0.00,weatherlink.com 1.10,2013-09-16 03:36:00,
2013-09-15 23:51:00,66.9,65.0,30.11,WSW,238,0.0,0.0,92,0.00,,,0.00,weatherlink.com 1.10,2013-09-16 03:51:00,